sensor_id;sensor_type;location;lat;lon;timestamp;P1;durP1;ratioP1;P2;durP2;ratioP2
70457;SDS011;57919;56.194;95.716;2023-05-31T00:02:19;8.67;;;5.73;;
70457;SDS011;57919;56.194;95.716;2023-05-31T00:12:20;9.80;;;5.20;;
70457;SDS011;57919;56.194;95.716;2023-05-31T00:22:22;8.52;;;4.55;;
70457;SDS011;57919;56.194;95.716;2023-05-31T00:32:24;8.30;;;4.70;;
70457;SDS011;57919;56.194;95.716;2023-05-31T00:42:28;8.18;;;4.78;;
70457;SDS011;57919;56.194;95.716;2023-05-31T00:52:30;8.93;;;4.97;;
70457;SDS011;57919;56.194;95.716;2023-05-31T01:02:34;9.30;;;4.70;;
70457;SDS011;57919;56.194;95.716;2023-05-31T01:33:34;7.05;;;4.10;;
70457;SDS011;57919;56.194;95.716;2023-05-31T01:43:39;31.20;;;4.43;;
70457;SDS011;57919;56.194;95.716;2023-05-31T01:53:44;7.87;;;3.90;;
70457;SDS011;57919;56.194;95.716;2023-05-31T02:03:48;12.15;;;4.32;;
70457;SDS011;57919;56.194;95.716;2023-05-31T02:13:52;6.80;;;4.03;;
70457;SDS011;57919;56.194;95.716;2023-05-31T02:23:54;8.02;;;3.80;;
70457;SDS011;57919;56.194;95.716;2023-05-31T02:33:56;8.13;;;4.10;;
70457;SDS011;57919;56.194;95.716;2023-05-31T02:43:58;8.67;;;4.03;;
70457;SDS011;57919;56.194;95.716;2023-05-31T02:54:00;6.68;;;3.85;;
70457;SDS011;57919;56.194;95.716;2023-05-31T03:04:04;6.90;;;3.97;;
70457;SDS011;57919;56.194;95.716;2023-05-31T03:14:11;8.88;;;4.05;;
70457;SDS011;57919;56.194;95.716;2023-05-31T03:24:22;6.63;;;3.30;;
70457;SDS011;57919;56.194;95.716;2023-05-31T03:34:26;7.33;;;2.83;;
70457;SDS011;57919;56.194;95.716;2023-05-31T03:44:28;6.80;;;3.88;;
70457;SDS011;57919;56.194;95.716;2023-05-31T03:54:30;8.40;;;4.70;;
70457;SDS011;57919;56.194;95.716;2023-05-31T04:04:32;7.28;;;3.55;;
70457;SDS011;57919;56.194;95.716;2023-05-31T04:14:34;5.40;;;3.33;;
70457;SDS011;57919;56.194;95.716;2023-05-31T04:24:39;8.60;;;3.90;;
70457;SDS011;57919;56.194;95.716;2023-05-31T04:34:42;8.35;;;2.95;;
70457;SDS011;57919;56.194;95.716;2023-05-31T04:44:44;5.37;;;2.60;;
70457;SDS011;57919;56.194;95.716;2023-05-31T04:54:46;6.20;;;2.55;;
70457;SDS011;57919;56.194;95.716;2023-05-31T05:04:48;5.60;;;2.60;;
70457;SDS011;57919;56.194;95.716;2023-05-31T05:14:51;5.67;;;2.93;;
70457;SDS011;57919;56.194;95.716;2023-05-31T05:24:53;6.30;;;3.05;;
70457;SDS011;57919;56.194;95.716;2023-05-31T05:34:56;7.30;;;3.27;;
70457;SDS011;57919;56.194;95.716;2023-05-31T05:44:58;5.57;;;2.70;;
70457;SDS011;57919;56.194;95.716;2023-05-31T05:55:00;6.20;;;3.13;;
70457;SDS011;57919;56.194;95.716;2023-05-31T06:05:02;6.00;;;3.17;;
70457;SDS011;57919;56.194;95.716;2023-05-31T06:15:04;6.30;;;3.30;;
70457;SDS011;57919;56.194;95.716;2023-05-31T06:25:07;9.17;;;3.90;;
70457;SDS011;57919;56.194;95.716;2023-05-31T06:35:10;7.18;;;4.30;;
70457;SDS011;57919;56.194;95.716;2023-05-31T06:45:13;7.03;;;3.37;;
70457;SDS011;57919;56.194;95.716;2023-05-31T06:55:28;7.27;;;3.70;;
70457;SDS011;57919;56.194;95.716;2023-05-31T07:05:30;8.20;;;3.58;;
70457;SDS011;57919;56.194;95.716;2023-05-31T07:15:34;8.20;;;4.00;;
70457;SDS011;57919;56.194;95.716;2023-05-31T07:25:36;6.43;;;3.90;;
70457;SDS011;57919;56.194;95.716;2023-05-31T07:35:39;7.03;;;4.00;;
70457;SDS011;57919;56.194;95.716;2023-05-31T07:45:43;6.73;;;3.90;;
70457;SDS011;57919;56.194;95.716;2023-05-31T07:55:45;9.98;;;4.00;;
70457;SDS011;57919;56.194;95.716;2023-05-31T08:05:47;6.63;;;3.40;;
70457;SDS011;57919;56.194;95.716;2023-05-31T08:15:50;6.80;;;3.30;;
70457;SDS011;57919;56.194;95.716;2023-05-31T08:25:54;9.37;;;3.33;;
70457;SDS011;57919;56.194;95.716;2023-05-31T08:35:55;5.20;;;2.77;;
70457;SDS011;57919;56.194;95.716;2023-05-31T08:46:00;6.63;;;3.47;;
70457;SDS011;57919;56.194;95.716;2023-05-31T08:56:08;5.10;;;2.80;;
70457;SDS011;57919;56.194;95.716;2023-05-31T09:06:10;8.27;;;3.17;;
70457;SDS011;57919;56.194;95.716;2023-05-31T09:16:12;9.33;;;2.83;;
70457;SDS011;57919;56.194;95.716;2023-05-31T09:26:14;6.53;;;3.30;;
70457;SDS011;57919;56.194;95.716;2023-05-31T09:36:23;9.90;;;3.50;;
70457;SDS011;57919;56.194;95.716;2023-05-31T09:46:26;8.77;;;2.27;;
70457;SDS011;57919;56.194;95.716;2023-05-31T09:56:28;11.85;;;3.13;;
70457;SDS011;57919;56.194;95.716;2023-05-31T10:06:31;11.90;;;1.83;;
70457;SDS011;57919;56.194;95.716;2023-05-31T10:16:38;12.10;;;3.73;;
70457;SDS011;57919;56.194;95.716;2023-05-31T10:37:07;8.40;;;2.87;;
70457;SDS011;57919;56.194;95.716;2023-05-31T10:47:11;8.80;;;3.15;;
70457;SDS011;57919;56.194;95.716;2023-05-31T10:57:17;11.63;;;6.30;;
70457;SDS011;57919;56.194;95.716;2023-05-31T11:07:21;13.23;;;5.60;;
70457;SDS011;57919;56.194;95.716;2023-05-31T11:17:27;9.75;;;4.72;;
70457;SDS011;57919;56.194;95.716;2023-05-31T11:27:36;6.67;;;2.87;;
70457;SDS011;57919;56.194;95.716;2023-05-31T11:37:39;6.85;;;3.35;;
70457;SDS011;57919;56.194;95.716;2023-05-31T11:57:46;9.23;;;3.80;;
70457;SDS011;57919;56.194;95.716;2023-05-31T12:07:55;9.77;;;4.00;;
70457;SDS011;57919;56.194;95.716;2023-05-31T12:17:58;8.17;;;3.87;;
70457;SDS011;57919;56.194;95.716;2023-05-31T12:28:02;10.18;;;4.03;;
70457;SDS011;57919;56.194;95.716;2023-05-31T12:38:04;10.67;;;5.47;;
70457;SDS011;57919;56.194;95.716;2023-05-31T12:48:08;13.97;;;6.50;;
70457;SDS011;57919;56.194;95.716;2023-05-31T12:58:14;55.70;;;28.08;;
70457;SDS011;57919;56.194;95.716;2023-05-31T13:08:16;27.00;;;13.97;;
70457;SDS011;57919;56.194;95.716;2023-05-31T13:18:18;20.88;;;11.52;;
70457;SDS011;57919;56.194;95.716;2023-05-31T13:28:20;16.43;;;8.87;;
70457;SDS011;57919;56.194;95.716;2023-05-31T13:38:26;22.57;;;7.30;;
70457;SDS011;57919;56.194;95.716;2023-05-31T13:48:28;27.42;;;15.10;;
70457;SDS011;57919;56.194;95.716;2023-05-31T13:58:33;22.77;;;12.53;;
70457;SDS011;57919;56.194;95.716;2023-05-31T14:08:35;29.65;;;14.73;;
70457;SDS011;57919;56.194;95.716;2023-05-31T14:18:37;12.60;;;7.33;;
70457;SDS011;57919;56.194;95.716;2023-05-31T14:28:39;13.73;;;8.10;;
70457;SDS011;57919;56.194;95.716;2023-05-31T14:38:41;18.90;;;7.95;;
70457;SDS011;57919;56.194;95.716;2023-05-31T14:48:43;22.70;;;8.20;;
70457;SDS011;57919;56.194;95.716;2023-05-31T14:58:46;37.95;;;13.63;;
70457;SDS011;57919;56.194;95.716;2023-05-31T15:08:48;37.30;;;17.70;;
70457;SDS011;57919;56.194;95.716;2023-05-31T15:18:50;29.00;;;11.33;;
70457;SDS011;57919;56.194;95.716;2023-05-31T15:28:52;17.00;;;7.68;;
70457;SDS011;57919;56.194;95.716;2023-05-31T15:39:01;16.10;;;8.30;;
70457;SDS011;57919;56.194;95.716;2023-05-31T15:49:04;22.80;;;13.32;;
70457;SDS011;57919;56.194;95.716;2023-05-31T15:59:06;39.50;;;18.67;;
70457;SDS011;57919;56.194;95.716;2023-05-31T16:09:08;49.13;;;29.87;;
70457;SDS011;57919;56.194;95.716;2023-05-31T16:19:09;52.30;;;29.85;;
70457;SDS011;57919;56.194;95.716;2023-05-31T16:29:12;49.10;;;27.03;;
70457;SDS011;57919;56.194;95.716;2023-05-31T16:39:15;57.67;;;29.88;;
70457;SDS011;57919;56.194;95.716;2023-05-31T16:49:16;66.17;;;31.17;;
70457;SDS011;57919;56.194;95.716;2023-05-31T16:59:18;74.30;;;41.73;;
70457;SDS011;57919;56.194;95.716;2023-05-31T17:09:20;57.08;;;24.38;;
70457;SDS011;57919;56.194;95.716;2023-05-31T17:19:22;43.27;;;21.33;;
70457;SDS011;57919;56.194;95.716;2023-05-31T17:29:24;40.85;;;21.15;;
70457;SDS011;57919;56.194;95.716;2023-05-31T17:39:26;48.33;;;21.23;;
70457;SDS011;57919;56.194;95.716;2023-05-31T17:49:27;36.57;;;18.17;;
70457;SDS011;57919;56.194;95.716;2023-05-31T17:59:29;39.22;;;19.58;;
70457;SDS011;57919;56.194;95.716;2023-05-31T18:09:31;43.50;;;21.03;;
70457;SDS011;57919;56.194;95.716;2023-05-31T18:19:34;60.53;;;27.38;;
70457;SDS011;57919;56.194;95.716;2023-05-31T18:29:36;68.43;;;28.07;;
70457;SDS011;57919;56.194;95.716;2023-05-31T18:39:38;48.17;;;23.40;;
70457;SDS011;57919;56.194;95.716;2023-05-31T18:49:40;51.30;;;22.52;;
70457;SDS011;57919;56.194;95.716;2023-05-31T18:59:41;43.03;;;22.13;;
70457;SDS011;57919;56.194;95.716;2023-05-31T19:09:43;39.22;;;18.85;;
70457;SDS011;57919;56.194;95.716;2023-05-31T19:19:45;35.83;;;17.73;;
70457;SDS011;57919;56.194;95.716;2023-05-31T19:29:47;31.43;;;15.17;;
70457;SDS011;57919;56.194;95.716;2023-05-31T19:39:49;28.33;;;12.60;;
70457;SDS011;57919;56.194;95.716;2023-05-31T19:49:53;18.13;;;9.33;;
70457;SDS011;57919;56.194;95.716;2023-05-31T19:59:55;17.20;;;8.50;;
70457;SDS011;57919;56.194;95.716;2023-05-31T20:09:57;13.03;;;7.07;;
70457;SDS011;57919;56.194;95.716;2023-05-31T20:19:59;16.60;;;8.37;;
70457;SDS011;57919;56.194;95.716;2023-05-31T20:30:01;20.10;;;10.18;;
70457;SDS011;57919;56.194;95.716;2023-05-31T20:40:05;23.20;;;10.37;;
70457;SDS011;57919;56.194;95.716;2023-05-31T20:50:07;14.13;;;7.68;;
70457;SDS011;57919;56.194;95.716;2023-05-31T21:00:13;15.93;;;7.87;;
70457;SDS011;57919;56.194;95.716;2023-05-31T21:10:15;17.90;;;9.33;;
70457;SDS011;57919;56.194;95.716;2023-05-31T21:20:17;24.92;;;11.88;;
70457;SDS011;57919;56.194;95.716;2023-05-31T21:30:20;19.13;;;8.60;;
70457;SDS011;57919;56.194;95.716;2023-05-31T21:40:23;17.65;;;9.77;;
70457;SDS011;57919;56.194;95.716;2023-05-31T21:50:24;17.30;;;10.43;;
70457;SDS011;57919;56.194;95.716;2023-05-31T22:00:26;18.40;;;10.57;;
70457;SDS011;57919;56.194;95.716;2023-05-31T22:10:28;18.10;;;11.02;;
70457;SDS011;57919;56.194;95.716;2023-05-31T22:20:30;20.63;;;11.20;;
70457;SDS011;57919;56.194;95.716;2023-05-31T22:30:36;19.95;;;11.70;;
70457;SDS011;57919;56.194;95.716;2023-05-31T22:40:38;17.83;;;10.10;;
70457;SDS011;57919;56.194;95.716;2023-05-31T22:50:41;18.60;;;11.87;;
70457;SDS011;57919;56.194;95.716;2023-05-31T23:00:44;23.55;;;10.43;;
70457;SDS011;57919;56.194;95.716;2023-05-31T23:10:47;13.70;;;8.60;;
70457;SDS011;57919;56.194;95.716;2023-05-31T23:20:49;15.45;;;8.52;;
70457;SDS011;57919;56.194;95.716;2023-05-31T23:30:54;13.97;;;8.80;;
70457;SDS011;57919;56.194;95.716;2023-05-31T23:40:56;16.10;;;9.03;;
70457;SDS011;57919;56.194;95.716;2023-05-31T23:50:58;19.42;;;10.40;;
